TimeMST,TemperatureF,Dew PointF,Humidity,Sea Level PressureIn,VisibilityMPH,Wind Direction,Wind SpeedMPH,Gust SpeedMPH,PrecipitationIn,Events,Conditions,WindDirDegrees,DateUTC
12:53 AM,45.0,36.0,71,30.31,10.0,South,4.6,-,N/A,,Partly Cloudy,180,2012-11-06 07:53:00
1:53 AM,43.0,35.1,74,30.31,10.0,SE,5.8,-,N/A,,Partly Cloudy,130,2012-11-06 08:53:00
2:53 AM,43.0,35.1,74,30.30,10.0,SE,6.9,-,N/A,,Partly Cloudy,130,2012-11-06 09:53:00
3:53 AM,42.1,35.1,76,30.29,10.0,SSE,5.8,-,N/A,,Partly Cloudy,150,2012-11-06 10:53:00
4:53 AM,42.1,35.1,76,30.30,10.0,SSE,5.8,-,N/A,,Partly Cloudy,150,2012-11-06 11:53:00
5:53 AM,43.0,35.1,74,30.31,10.0,Calm,Calm,-,N/A,,Partly Cloudy,0,2012-11-06 12:53:00
6:53 AM,41.0,35.1,79,30.32,10.0,SE,8.1,-,N/A,,Partly Cloudy,130,2012-11-06 13:53:00
7:53 AM,44.1,36.0,73,30.35,10.0,ESE,9.2,-,N/A,,Partly Cloudy,120,2012-11-06 14:53:00
8:53 AM,50.0,37.9,63,30.33,10.0,SE,8.1,-,N/A,,Partly Cloudy,140,2012-11-06 15:53:00
9:53 AM,55.0,37.9,53,30.32,10.0,SE,5.8,-,N/A,,Partly Cloudy,130,2012-11-06 16:53:00
10:53 AM,59.0,37.0,44,30.30,10.0,SSE,5.8,-,N/A,,Partly Cloudy,150,2012-11-06 17:53:00
11:53 AM,63.0,39.0,41,30.27,10.0,North,3.5,-,N/A,,Partly Cloudy,360,2012-11-06 18:53:00
12:53 PM,64.9,39.0,39,30.23,10.0,Variable,3.5,-,N/A,,Partly Cloudy,0,2012-11-06 19:53:00
1:53 PM,66.9,37.0,33,30.21,10.0,NNW,3.5,-,N/A,,Partly Cloudy,340,2012-11-06 20:53:00
2:53 PM,68.0,37.0,32,30.18,10.0,Calm,Calm,-,N/A,,Partly Cloudy,0,2012-11-06 21:53:00
3:53 PM,66.9,37.9,34,30.18,10.0,Calm,Calm,-,N/A,,Scattered Clouds,0,2012-11-06 22:53:00
4:53 PM,61.0,41.0,48,30.17,10.0,North,6.9,-,N/A,,Scattered Clouds,350,2012-11-06 23:53:00
5:53 PM,54.0,42.1,64,30.18,10.0,North,6.9,-,N/A,,Partly Cloudy,350,2012-11-07 00:53:00
6:53 PM,52.0,42.1,69,30.19,10.0,Calm,Calm,-,N/A,,Partly Cloudy,0,2012-11-07 01:53:00
7:53 PM,52.0,42.1,69,30.18,10.0,SSW,3.5,-,N/A,,Partly Cloudy,200,2012-11-07 02:53:00
8:53 PM,50.0,41.0,71,30.16,10.0,SE,3.5,-,N/A,,Clear,140,2012-11-07 03:53:00
9:53 PM,48.0,35.1,61,30.14,10.0,SSE,6.9,-,N/A,,Clear,160,2012-11-07 04:53:00
10:53 PM,48.0,37.0,66,30.12,10.0,SE,8.1,-,N/A,,Clear,140,2012-11-07 05:53:00
11:53 PM,45.0,35.1,68,30.12,10.0,SE,8.1,-,N/A,,Clear,130,2012-11-07 06:53:00